Nearby METAR Reports

 

KSJC - San Jose, California, USA
Distance from station: NE 9mi, 14km
Updated: Thu, 29-Feb-2024 2:53pm PST
Light rain, Mostly cloudy
Light rain, Mostly cloudy
 Wind from SSW
Wind: SSW 14 mph , 22 km/h, Gust: 33 mph , 54 km/h
Temperature: 61°F , 16°C
Dew Point: 52°F , 11°C
Humidity: 72%
Barometer: 30.00 inHg , 1015.9 hPa
Summary: Light rain
Clouds: Mostly cloudy
Visibility: 5 miles , 8 km
Cloud details: Partly cloudy 1500 ft
Partly cloudy 2400 ft
Mostly cloudy 3500 ft
2024/02/29 22:53 KSJC 292253Z 20012G29KT 5SM -RA SCT015 SCT024 BKN035TCU 16/11 A3000 RMK AO2 PK WND 20029/2247 RAB50 SLP158 TCU ALQDS P0000 T01560106
KNUQ - Moffett Nas/Mtn, California, USA
Distance from station: N 9mi, 14km
Updated: Thu, 29-Feb-2024 2:55pm PST
Mostly cloudy
Mostly cloudy
 Wind from S
Wind: S 9 mph , 15 km/h, Gust: 16 mph , 26 km/h
Temperature: 57°F , 14°C
Dew Point: 52°F , 11°C
Humidity: 82%
Barometer: 30.00 inHg , 1015.9 hPa
Clouds: Mostly cloudy
Visibility: 10 miles , 16 km
Cloud details: Few Clouds 1900 ft
Partly cloudy 4100 ft
Mostly cloudy 8000 ft
2024/02/29 22:55 KNUQ 292255Z AUTO 17008G14KT 10SM FEW019 SCT041 BKN080 14/11 A3000 RMK AO2 P0001
 
KPAO - Palo Alto, California, USA
Distance from station: NNW 14mi, 23km
Updated: Thu, 29-Feb-2024 2:47pm PST
Nearby showers, Mostly cloudy
Nearby showers, Mostly cloudy
 Wind from S
Wind: S 9 mph , 15 km/h
Temperature: 57°F , 14°C
Dew Point: 52°F , 11°C
Humidity: 82%
Barometer: 30.00 inHg , 1015.9 hPa
Summary: Nearby Showers
Clouds: Mostly cloudy
Visibility: 10 miles , 16 km
Cloud details: Mostly cloudy 2400 ft
2024/02/29 22:47 KPAO 292247Z 18008KT 10SM VCSH BKN024 14/11 A3000
KRHV - San Jose/Reid, California, USA
Distance from station: ENE 12mi, 19km
Updated: Thu, 29-Feb-2024 2:58pm PST
Mostly cloudy
Mostly cloudy
 Wind from SSE
Wind: SSE 14 mph , 22 km/h, Gust: 21 mph , 33 km/h
Temperature: 61°F , 16°C
Dew Point: 48°F , 9°C
Humidity: 63%
Barometer: 30.02 inHg , 1016.6 hPa
Clouds: Mostly cloudy
Visibility: 10 miles , 16 km
Cloud details: Mostly cloudy 2500 ft
2024/02/29 22:58 KRHV 292258Z 15012G18KT 10SM BKN025 16/09 A3002
 
KOAK - Oakland, California, USA
Distance from station: NNW 31mi, 50km
Updated: Thu, 29-Feb-2024 2:53pm PST
Light rain, Mostly cloudy
Light rain, Mostly cloudy
 Wind from SSW
Wind: SSW 25 mph , 41 km/h, Gust: 39 mph , 63 km/h
Temperature: 59°F , 15°C
Dew Point: 55°F , 13°C
Humidity: 88%
Barometer: 29.98 inHg , 1015.2 hPa
Summary: Light rain
Clouds: Mostly cloudy
Visibility: 7 miles , 11 km
Cloud details: Partly cloudy 2000 ft
Mostly cloudy 3000 ft
Mostly cloudy 8000 ft
2024/02/29 22:53 KOAK 292253Z 21022G34KT 7SM -RA SCT020 BKN030 BKN080 15/13 A2998 RMK AO2 PK WND 23035/2220 RAE20B45 SLP151 P0000 T01500128 $
KSQL - San Carlos Airpo, California, USA
Distance from station: NW 21mi, 34km
Updated: Thu, 29-Feb-2024 2:47pm PST
Haze, Mostly cloudy
Haze, Mostly cloudy
 Wind from SSE
Wind: SSE 12 mph , 19 km/h, Gust: 21 mph , 33 km/h
Temperature: 57°F , 14°C
Dew Point: 52°F , 11°C
Humidity: 82%
Barometer: 30.00 inHg , 1015.9 hPa
Summary: Haze
Clouds: Mostly cloudy
Visibility: 8 miles , 13 km
Cloud details: Mostly cloudy 2100 ft
Mostly cloudy 2600 ft
2024/02/29 22:47 KSQL 292247Z 16010G18KT 8SM HZ BKN021 BKN026 14/11 A3000
 
KSFO - San Francisco, California, USA
Distance from station: NW 30mi, 49km
Updated: Thu, 29-Feb-2024 2:56pm PST
Light rain, Mist, Overcast
Light rain, Mist, Overcast
 Wind from S
Wind: S 18 mph , 30 km/h, Gust: 31 mph , 50 km/h
Temperature: 57°F , 14°C
Dew Point: 54°F , 12°C
Humidity: 88%
Barometer: 29.98 inHg , 1015.2 hPa
Summary: Light rain, Mist
Clouds: Overcast
Visibility: 2 1/2 miles , 4 km
Cloud details: Few Clouds 1200 ft
Mostly cloudy 1600 ft
Overcast 2400 ft
2024/02/29 22:56 KSFO 292256Z 18016G27KT 2 1/2SM R28R/5000VP6000FT -RA BR FEW012 BKN016 OVC024 14/12 A2998 RMK AO2 PK WND 20040/2212 SLP150 P0002 T01390117
KE16 - San Martin, California, USA
Distance from station: ESE 27mi, 43km
Updated: Thu, 29-Feb-2024 2:55pm PST
Mist, Mostly cloudy
Mist, Mostly cloudy
 Wind from SW
Wind: SW 14 mph , 22 km/h, Gust: 26 mph , 43 km/h
Temperature: 55°F , 13°C
Dew Point: 52°F , 11°C
Humidity: 88%
Barometer: 30.06 inHg , 1017.9 hPa
Summary: Mist
Clouds: Mostly cloudy
Visibility: 2 1/2 miles , 4 km
Cloud details: Partly cloudy 2600 ft
Partly cloudy 3000 ft
Mostly cloudy 4100 ft
2024/02/29 22:55 KE16 292255Z AUTO 22012G23KT 2 1/2SM BR SCT026 SCT030 BKN041 13/11 A3006 RMK AO2 PWINO PNO
 
KWVI - Watsonville, California, USA
Distance from station: SSE 27mi, 44km
Updated: Thu, 29-Feb-2024 2:53pm PST
Light rain, Overcast
Light rain, Overcast
 Wind from SW
Wind: SW 17 mph , 28 km/h, Gust: 35 mph , 56 km/h
Temperature: 55°F , 13°C
Dew Point: 52°F , 11°C
Humidity: 88%
Barometer: 30.05 inHg , 1017.6 hPa
Summary: Light rain
Clouds: Overcast
Visibility: 9 miles , 14 km
Cloud details: Few Clouds 3100 ft
Mostly cloudy 4900 ft
Overcast 6000 ft
2024/02/29 22:53 KWVI 292253Z AUTO 23015G30KT 9SM -RA FEW031 BKN049 OVC060 13/11 A3005 RMK AO2 PK WND 22030/2249 RAB14 SLP174 P0000 T01280106
KHAF - Half Moon Bay, California, USA
Distance from station: WNW 31mi, 50km
Updated: Thu, 29-Feb-2024 2:55pm PST
Mist, Mostly cloudy
Mist, Mostly cloudy
 Wind from S
Wind: S 17 mph , 28 km/h, Gust: 25 mph , 41 km/h
Temperature: 55°F , 13°C
Dew Point: 55°F , 13°C
Humidity: 100%
Barometer: 30.00 inHg , 1015.9 hPa
Summary: Mist
Clouds: Mostly cloudy
Visibility: 1 1/2 miles , 2.4 km
Cloud details: Partly cloudy 700 ft
Mostly cloudy 1400 ft
Mostly cloudy 2200 ft
2024/02/29 22:55 KHAF 292255Z AUTO 19015G22KT 1 1/2SM BR SCT007 BKN014 BKN022 13/13 A3000 RMK AO2 P0001
 
KHWD - Hayward, California, USA
Distance from station: N 28mi, 44km
Updated: Thu, 29-Feb-2024 2:54pm PST
Light rain, Overcast
Light rain, Overcast
 
Temperature: 61°F , 16°C
Dew Point: 52°F , 11°C
Humidity: 72%
Barometer: 29.99 inHg , 1015.6 hPa
Summary: Light rain
Clouds: Overcast
Visibility: 10 miles , 16 km
Cloud details: Partly cloudy 2900 ft
Mostly cloudy 3700 ft
Overcast 4800 ft
2024/02/29 22:54 KHWD 292254Z 10SM -RA SCT029 BKN037 OVC048 16/11 A2999 RMK AO2 PK WND 21026/2250 RAB2157 SLP164 P0000 T01610106
KLVK - Livermore, California, USA
Distance from station: NNE 31mi, 51km
Updated: Thu, 29-Feb-2024 2:53pm PST
Overcast
Overcast
 Wind from SSW
Wind: SSW 18 mph , 30 km/h, Gust: 31 mph , 50 km/h
Temperature: 57°F , 14°C
Dew Point: 48°F , 9°C
Humidity: 72%
Barometer: 29.98 inHg , 1015.2 hPa
Clouds: Overcast
Visibility: 9 miles , 14 km
Cloud details: Few Clouds 2700 ft
Overcast 3800 ft
2024/02/29 22:53 KLVK 292253Z 21016G27KT 9SM FEW027 OVC038 14/09 A2998 RMK AO2 PK WND 22027/2252 RAB15E31 SLP150 P0000 T01390094